sensor_id;sensor_type;location;lat;lon;timestamp;P1;durP1;ratioP1;P2;durP2;ratioP2
26082;SDS011;13848;49.018;12.078;2023-11-19T00:01:19;1.73;;;1.63;;
26082;SDS011;13848;49.018;12.078;2023-11-19T00:03:45;3.03;;;2.10;;
26082;SDS011;13848;49.018;12.078;2023-11-19T00:06:11;2.20;;;1.88;;
26082;SDS011;13848;49.018;12.078;2023-11-19T00:08:37;2.63;;;1.90;;
26082;SDS011;13848;49.018;12.078;2023-11-19T00:11:05;1.92;;;1.75;;
26082;SDS011;13848;49.018;12.078;2023-11-19T00:13:31;2.25;;;1.60;;
26082;SDS011;13848;49.018;12.078;2023-11-19T00:15:57;3.22;;;2.33;;
26082;SDS011;13848;49.018;12.078;2023-11-19T00:18:22;2.70;;;2.03;;
26082;SDS011;13848;49.018;12.078;2023-11-19T00:20:48;2.83;;;2.00;;
26082;SDS011;13848;49.018;12.078;2023-11-19T00:23:14;2.25;;;1.83;;
26082;SDS011;13848;49.018;12.078;2023-11-19T00:25:40;4.10;;;2.20;;
26082;SDS011;13848;49.018;12.078;2023-11-19T00:28:08;2.78;;;1.98;;
26082;SDS011;13848;49.018;12.078;2023-11-19T00:30:33;2.15;;;1.77;;
26082;SDS011;13848;49.018;12.078;2023-11-19T00:32:59;2.13;;;1.88;;
26082;SDS011;13848;49.018;12.078;2023-11-19T00:35:25;3.13;;;2.05;;
26082;SDS011;13848;49.018;12.078;2023-11-19T00:37:51;2.17;;;1.98;;
26082;SDS011;13848;49.018;12.078;2023-11-19T00:40:17;2.95;;;2.08;;
26082;SDS011;13848;49.018;12.078;2023-11-19T00:42:43;2.78;;;2.00;;
26082;SDS011;13848;49.018;12.078;2023-11-19T00:45:10;2.35;;;2.10;;
26082;SDS011;13848;49.018;12.078;2023-11-19T00:47:36;3.83;;;2.10;;
26082;SDS011;13848;49.018;12.078;2023-11-19T00:50:02;2.30;;;1.80;;
26082;SDS011;13848;49.018;12.078;2023-11-19T00:52:29;3.90;;;2.10;;
26082;SDS011;13848;49.018;12.078;2023-11-19T00:54:54;2.60;;;2.00;;
26082;SDS011;13848;49.018;12.078;2023-11-19T00:57:20;3.65;;;2.15;;
26082;SDS011;13848;49.018;12.078;2023-11-19T00:59:46;2.30;;;1.90;;
26082;SDS011;13848;49.018;12.078;2023-11-19T01:02:14;3.55;;;2.20;;
26082;SDS011;13848;49.018;12.078;2023-11-19T01:04:40;2.30;;;2.00;;
26082;SDS011;13848;49.018;12.078;2023-11-19T01:07:05;2.85;;;2.13;;
26082;SDS011;13848;49.018;12.078;2023-11-19T01:09:31;2.50;;;1.88;;
26082;SDS011;13848;49.018;12.078;2023-11-19T01:11:58;2.72;;;2.10;;
26082;SDS011;13848;49.018;12.078;2023-11-19T01:14:24;3.20;;;2.17;;
26082;SDS011;13848;49.018;12.078;2023-11-19T01:16:50;4.85;;;2.22;;
26082;SDS011;13848;49.018;12.078;2023-11-19T01:19:17;3.45;;;2.30;;
26082;SDS011;13848;49.018;12.078;2023-11-19T01:21:43;2.55;;;2.13;;
26082;SDS011;13848;49.018;12.078;2023-11-19T01:24:09;3.55;;;2.78;;
26082;SDS011;13848;49.018;12.078;2023-11-19T01:26:35;2.80;;;2.28;;
26082;SDS011;13848;49.018;12.078;2023-11-19T01:29:01;4.10;;;2.53;;
26082;SDS011;13848;49.018;12.078;2023-11-19T01:31:26;3.38;;;2.35;;
26082;SDS011;13848;49.018;12.078;2023-11-19T01:33:52;3.05;;;2.40;;
26082;SDS011;13848;49.018;12.078;2023-11-19T01:36:20;3.03;;;2.42;;
26082;SDS011;13848;49.018;12.078;2023-11-19T01:38:46;2.95;;;2.47;;
26082;SDS011;13848;49.018;12.078;2023-11-19T01:41:12;5.60;;;2.80;;
26082;SDS011;13848;49.018;12.078;2023-11-19T01:43:38;2.97;;;2.28;;
26082;SDS011;13848;49.018;12.078;2023-11-19T01:46:05;2.75;;;2.22;;
26082;SDS011;13848;49.018;12.078;2023-11-19T01:48:31;2.67;;;2.17;;
26082;SDS011;13848;49.018;12.078;2023-11-19T01:50:59;2.70;;;2.17;;
26082;SDS011;13848;49.018;12.078;2023-11-19T01:53:27;3.28;;;2.42;;
26082;SDS011;13848;49.018;12.078;2023-11-19T01:55:54;3.30;;;2.63;;
26082;SDS011;13848;49.018;12.078;2023-11-19T01:58:21;2.90;;;2.30;;
26082;SDS011;13848;49.018;12.078;2023-11-19T02:00:48;3.15;;;2.60;;
26082;SDS011;13848;49.018;12.078;2023-11-19T02:03:14;3.58;;;2.55;;
26082;SDS011;13848;49.018;12.078;2023-11-19T02:05:41;3.80;;;2.45;;
26082;SDS011;13848;49.018;12.078;2023-11-19T02:08:08;2.40;;;2.00;;
26082;SDS011;13848;49.018;12.078;2023-11-19T02:10:35;2.40;;;2.20;;
26082;SDS011;13848;49.018;12.078;2023-11-19T02:13:01;3.50;;;2.53;;
26082;SDS011;13848;49.018;12.078;2023-11-19T02:15:27;2.95;;;2.35;;
26082;SDS011;13848;49.018;12.078;2023-11-19T02:17:53;2.83;;;2.28;;
26082;SDS011;13848;49.018;12.078;2023-11-19T02:20:19;3.50;;;2.50;;
26082;SDS011;13848;49.018;12.078;2023-11-19T02:22:46;3.38;;;2.47;;
26082;SDS011;13848;49.018;12.078;2023-11-19T02:25:19;2.85;;;2.30;;
26082;SDS011;13848;49.018;12.078;2023-11-19T02:27:53;2.42;;;2.17;;
26082;SDS011;13848;49.018;12.078;2023-11-19T02:30:21;3.03;;;2.15;;
26082;SDS011;13848;49.018;12.078;2023-11-19T02:32:47;3.00;;;2.22;;
26082;SDS011;13848;49.018;12.078;2023-11-19T02:35:13;2.70;;;2.25;;
26082;SDS011;13848;49.018;12.078;2023-11-19T02:37:39;3.10;;;2.55;;
26082;SDS011;13848;49.018;12.078;2023-11-19T02:40:05;3.08;;;2.65;;
26082;SDS011;13848;49.018;12.078;2023-11-19T02:42:32;2.90;;;2.60;;
26082;SDS011;13848;49.018;12.078;2023-11-19T02:44:59;3.45;;;2.55;;
26082;SDS011;13848;49.018;12.078;2023-11-19T02:47:25;3.53;;;2.67;;
26082;SDS011;13848;49.018;12.078;2023-11-19T02:49:51;3.63;;;3.00;;
26082;SDS011;13848;49.018;12.078;2023-11-19T02:52:17;3.42;;;2.95;;
26082;SDS011;13848;49.018;12.078;2023-11-19T02:54:43;3.67;;;2.63;;
26082;SDS011;13848;49.018;12.078;2023-11-19T02:57:09;3.83;;;2.65;;
26082;SDS011;13848;49.018;12.078;2023-11-19T02:59:35;4.93;;;3.05;;
26082;SDS011;13848;49.018;12.078;2023-11-19T03:02:04;3.35;;;2.78;;
26082;SDS011;13848;49.018;12.078;2023-11-19T03:04:30;3.15;;;2.55;;
26082;SDS011;13848;49.018;12.078;2023-11-19T03:06:56;3.13;;;2.63;;
26082;SDS011;13848;49.018;12.078;2023-11-19T03:09:22;3.63;;;2.70;;
26082;SDS011;13848;49.018;12.078;2023-11-19T03:11:48;3.78;;;2.95;;
26082;SDS011;13848;49.018;12.078;2023-11-19T03:14:14;3.38;;;2.55;;
26082;SDS011;13848;49.018;12.078;2023-11-19T03:16:40;4.43;;;2.90;;
26082;SDS011;13848;49.018;12.078;2023-11-19T03:19:07;3.03;;;2.70;;
26082;SDS011;13848;49.018;12.078;2023-11-19T03:21:33;3.42;;;2.60;;
26082;SDS011;13848;49.018;12.078;2023-11-19T03:23:59;3.50;;;3.08;;
26082;SDS011;13848;49.018;12.078;2023-11-19T03:26:25;3.00;;;2.63;;
26082;SDS011;13848;49.018;12.078;2023-11-19T03:28:51;4.10;;;2.78;;
26082;SDS011;13848;49.018;12.078;2023-11-19T03:31:17;4.18;;;2.60;;
26082;SDS011;13848;49.018;12.078;2023-11-19T03:33:43;4.15;;;2.67;;
26082;SDS011;13848;49.018;12.078;2023-11-19T03:36:10;2.63;;;2.40;;
26082;SDS011;13848;49.018;12.078;2023-11-19T03:38:36;3.75;;;2.90;;
26082;SDS011;13848;49.018;12.078;2023-11-19T03:41:07;3.28;;;2.53;;
26082;SDS011;13848;49.018;12.078;2023-11-19T03:43:35;3.50;;;2.72;;
26082;SDS011;13848;49.018;12.078;2023-11-19T03:46:01;3.65;;;2.90;;
26082;SDS011;13848;49.018;12.078;2023-11-19T03:48:27;3.80;;;2.80;;
26082;SDS011;13848;49.018;12.078;2023-11-19T03:50:53;4.53;;;3.40;;
26082;SDS011;13848;49.018;12.078;2023-11-19T03:53:20;3.63;;;2.92;;
26082;SDS011;13848;49.018;12.078;2023-11-19T03:55:46;3.90;;;2.88;;
26082;SDS011;13848;49.018;12.078;2023-11-19T03:58:12;3.50;;;3.00;;
26082;SDS011;13848;49.018;12.078;2023-11-19T04:00:38;4.40;;;3.30;;
26082;SDS011;13848;49.018;12.078;2023-11-19T04:03:04;4.20;;;3.25;;
26082;SDS011;13848;49.018;12.078;2023-11-19T04:05:30;5.13;;;3.25;;
26082;SDS011;13848;49.018;12.078;2023-11-19T04:07:56;4.28;;;3.17;;
26082;SDS011;13848;49.018;12.078;2023-11-19T04:10:23;4.22;;;3.17;;
26082;SDS011;13848;49.018;12.078;2023-11-19T04:12:49;3.60;;;3.00;;
26082;SDS011;13848;49.018;12.078;2023-11-19T04:15:15;4.05;;;3.35;;
26082;SDS011;13848;49.018;12.078;2023-11-19T04:17:41;3.90;;;3.17;;
26082;SDS011;13848;49.018;12.078;2023-11-19T04:20:07;4.22;;;3.00;;
26082;SDS011;13848;49.018;12.078;2023-11-19T04:22:33;3.55;;;2.80;;
26082;SDS011;13848;49.018;12.078;2023-11-19T04:24:59;3.55;;;2.83;;
26082;SDS011;13848;49.018;12.078;2023-11-19T04:27:27;3.90;;;3.08;;
26082;SDS011;13848;49.018;12.078;2023-11-19T04:29:52;3.40;;;2.80;;
26082;SDS011;13848;49.018;12.078;2023-11-19T04:32:18;3.22;;;2.45;;
26082;SDS011;13848;49.018;12.078;2023-11-19T04:34:44;4.28;;;2.72;;
26082;SDS011;13848;49.018;12.078;2023-11-19T04:37:10;3.95;;;2.95;;
26082;SDS011;13848;49.018;12.078;2023-11-19T04:39:36;5.68;;;2.88;;
26082;SDS011;13848;49.018;12.078;2023-11-19T04:42:02;3.20;;;2.67;;
26082;SDS011;13848;49.018;12.078;2023-11-19T04:44:30;3.55;;;2.67;;
26082;SDS011;13848;49.018;12.078;2023-11-19T04:46:56;3.75;;;2.58;;
26082;SDS011;13848;49.018;12.078;2023-11-19T04:49:22;3.47;;;2.60;;
26082;SDS011;13848;49.018;12.078;2023-11-19T04:51:48;3.17;;;2.50;;
26082;SDS011;13848;49.018;12.078;2023-11-19T04:54:14;2.72;;;2.45;;
26082;SDS011;13848;49.018;12.078;2023-11-19T04:56:40;3.70;;;2.75;;
26082;SDS011;13848;49.018;12.078;2023-11-19T04:59:06;3.60;;;2.70;;
26082;SDS011;13848;49.018;12.078;2023-11-19T05:01:33;4.40;;;3.13;;
26082;SDS011;13848;49.018;12.078;2023-11-19T05:03:59;3.15;;;2.72;;
26082;SDS011;13848;49.018;12.078;2023-11-19T05:06:26;4.15;;;3.15;;
26082;SDS011;13848;49.018;12.078;2023-11-19T05:08:52;3.53;;;3.05;;
26082;SDS011;13848;49.018;12.078;2023-11-19T05:11:18;4.18;;;3.33;;
26082;SDS011;13848;49.018;12.078;2023-11-19T05:13:44;4.40;;;3.28;;
26082;SDS011;13848;49.018;12.078;2023-11-19T05:16:10;4.55;;;3.67;;
26082;SDS011;13848;49.018;12.078;2023-11-19T05:18:37;4.05;;;3.33;;
26082;SDS011;13848;49.018;12.078;2023-11-19T05:21:03;4.70;;;3.47;;
26082;SDS011;13848;49.018;12.078;2023-11-19T05:23:29;4.60;;;3.65;;
26082;SDS011;13848;49.018;12.078;2023-11-19T05:25:55;4.53;;;3.78;;
26082;SDS011;13848;49.018;12.078;2023-11-19T05:28:21;5.72;;;4.28;;
26082;SDS011;13848;49.018;12.078;2023-11-19T05:30:47;6.50;;;3.95;;
26082;SDS011;13848;49.018;12.078;2023-11-19T05:33:13;5.57;;;4.28;;
26082;SDS011;13848;49.018;12.078;2023-11-19T05:35:40;6.43;;;4.60;;
26082;SDS011;13848;49.018;12.078;2023-11-19T05:38:06;5.80;;;4.57;;
26082;SDS011;13848;49.018;12.078;2023-11-19T05:40:32;5.50;;;4.10;;
26082;SDS011;13848;49.018;12.078;2023-11-19T05:42:58;5.20;;;4.28;;
26082;SDS011;13848;49.018;12.078;2023-11-19T05:45:24;6.53;;;4.50;;
26082;SDS011;13848;49.018;12.078;2023-11-19T05:47:50;6.82;;;4.72;;
26082;SDS011;13848;49.018;12.078;2023-11-19T05:50:16;5.93;;;4.50;;
26082;SDS011;13848;49.018;12.078;2023-11-19T05:52:43;6.47;;;4.40;;
26082;SDS011;13848;49.018;12.078;2023-11-19T05:55:09;6.53;;;4.35;;
26082;SDS011;13848;49.018;12.078;2023-11-19T05:57:35;6.88;;;4.97;;
26082;SDS011;13848;49.018;12.078;2023-11-19T06:00:01;7.30;;;5.20;;
26082;SDS011;13848;49.018;12.078;2023-11-19T06:02:27;5.93;;;4.45;;
26082;SDS011;13848;49.018;12.078;2023-11-19T06:04:53;6.40;;;4.88;;
26082;SDS011;13848;49.018;12.078;2023-11-19T06:07:19;7.20;;;4.18;;
26082;SDS011;13848;49.018;12.078;2023-11-19T06:09:46;6.65;;;4.85;;
26082;SDS011;13848;49.018;12.078;2023-11-19T06:12:12;6.15;;;4.45;;
26082;SDS011;13848;49.018;12.078;2023-11-19T06:14:38;8.27;;;4.40;;
26082;SDS011;13848;49.018;12.078;2023-11-19T06:17:05;6.07;;;4.45;;
26082;SDS011;13848;49.018;12.078;2023-11-19T06:19:31;5.55;;;4.28;;
26082;SDS011;13848;49.018;12.078;2023-11-19T06:21:57;5.75;;;4.47;;
26082;SDS011;13848;49.018;12.078;2023-11-19T06:24:23;6.18;;;4.38;;
26082;SDS011;13848;49.018;12.078;2023-11-19T06:26:50;5.95;;;4.50;;
26082;SDS011;13848;49.018;12.078;2023-11-19T06:29:16;5.35;;;4.35;;
26082;SDS011;13848;49.018;12.078;2023-11-19T06:31:42;5.47;;;4.30;;
26082;SDS011;13848;49.018;12.078;2023-11-19T06:34:08;6.93;;;4.75;;
26082;SDS011;13848;49.018;12.078;2023-11-19T06:36:34;6.45;;;4.35;;
26082;SDS011;13848;49.018;12.078;2023-11-19T06:39:00;5.97;;;4.60;;
26082;SDS011;13848;49.018;12.078;2023-11-19T06:41:26;5.32;;;4.18;;
26082;SDS011;13848;49.018;12.078;2023-11-19T06:43:54;7.68;;;4.63;;
26082;SDS011;13848;49.018;12.078;2023-11-19T06:46:20;5.95;;;4.18;;
26082;SDS011;13848;49.018;12.078;2023-11-19T06:48:46;6.65;;;4.90;;
26082;SDS011;13848;49.018;12.078;2023-11-19T06:51:12;6.13;;;4.40;;
26082;SDS011;13848;49.018;12.078;2023-11-19T06:53:38;5.80;;;4.60;;
26082;SDS011;13848;49.018;12.078;2023-11-19T06:56:04;6.55;;;4.82;;
26082;SDS011;13848;49.018;12.078;2023-11-19T06:58:30;5.55;;;4.35;;
26082;SDS011;13848;49.018;12.078;2023-11-19T07:00:57;6.40;;;4.82;;
26082;SDS011;13848;49.018;12.078;2023-11-19T07:03:23;7.53;;;4.97;;
26082;SDS011;13848;49.018;12.078;2023-11-19T07:05:49;6.25;;;4.90;;
26082;SDS011;13848;49.018;12.078;2023-11-19T07:08:15;6.40;;;4.43;;
26082;SDS011;13848;49.018;12.078;2023-11-19T07:10:41;6.05;;;4.85;;
26082;SDS011;13848;49.018;12.078;2023-11-19T07:13:07;6.28;;;4.70;;
26082;SDS011;13848;49.018;12.078;2023-11-19T07:15:33;6.32;;;4.53;;
26082;SDS011;13848;49.018;12.078;2023-11-19T07:18:00;10.52;;;6.65;;
26082;SDS011;13848;49.018;12.078;2023-11-19T07:20:26;5.75;;;4.15;;
26082;SDS011;13848;49.018;12.078;2023-11-19T07:22:52;5.65;;;4.28;;
26082;SDS011;13848;49.018;12.078;2023-11-19T07:25:19;5.97;;;4.35;;
26082;SDS011;13848;49.018;12.078;2023-11-19T07:27:45;5.88;;;4.65;;
26082;SDS011;13848;49.018;12.078;2023-11-19T07:30:11;6.45;;;3.95;;
26082;SDS011;13848;49.018;12.078;2023-11-19T07:32:37;5.00;;;3.80;;
26082;SDS011;13848;49.018;12.078;2023-11-19T07:35:05;5.45;;;4.40;;
26082;SDS011;13848;49.018;12.078;2023-11-19T07:37:32;4.93;;;3.78;;
26082;SDS011;13848;49.018;12.078;2023-11-19T07:39:58;5.03;;;3.72;;
26082;SDS011;13848;49.018;12.078;2023-11-19T07:42:23;7.28;;;4.20;;
26082;SDS011;13848;49.018;12.078;2023-11-19T07:44:49;6.07;;;3.65;;
26082;SDS011;13848;49.018;12.078;2023-11-19T07:47:15;5.35;;;3.85;;
26082;SDS011;13848;49.018;12.078;2023-11-19T07:49:41;5.18;;;4.00;;
26082;SDS011;13848;49.018;12.078;2023-11-19T07:52:09;4.65;;;3.50;;
26082;SDS011;13848;49.018;12.078;2023-11-19T07:54:35;4.53;;;3.60;;
26082;SDS011;13848;49.018;12.078;2023-11-19T07:57:01;5.55;;;4.22;;
26082;SDS011;13848;49.018;12.078;2023-11-19T07:59:27;5.05;;;3.97;;
26082;SDS011;13848;49.018;12.078;2023-11-19T08:01:52;5.60;;;3.60;;
26082;SDS011;13848;49.018;12.078;2023-11-19T08:04:18;5.90;;;4.25;;
26082;SDS011;13848;49.018;12.078;2023-11-19T08:06:44;5.63;;;3.97;;
26082;SDS011;13848;49.018;12.078;2023-11-19T08:09:12;6.10;;;4.20;;
26082;SDS011;13848;49.018;12.078;2023-11-19T08:11:37;5.43;;;4.00;;
26082;SDS011;13848;49.018;12.078;2023-11-19T08:14:03;7.10;;;4.45;;
26082;SDS011;13848;49.018;12.078;2023-11-19T08:16:29;6.38;;;4.20;;
26082;SDS011;13848;49.018;12.078;2023-11-19T08:18:55;5.55;;;3.97;;
26082;SDS011;13848;49.018;12.078;2023-11-19T08:21:21;5.00;;;3.80;;
26082;SDS011;13848;49.018;12.078;2023-11-19T08:23:47;5.45;;;4.03;;
26082;SDS011;13848;49.018;12.078;2023-11-19T08:26:15;5.20;;;4.00;;
26082;SDS011;13848;49.018;12.078;2023-11-19T08:28:41;5.78;;;4.30;;
26082;SDS011;13848;49.018;12.078;2023-11-19T08:31:07;5.10;;;4.05;;
26082;SDS011;13848;49.018;12.078;2023-11-19T08:33:33;5.63;;;4.15;;
26082;SDS011;13848;49.018;12.078;2023-11-19T08:35:59;5.72;;;4.65;;
26082;SDS011;13848;49.018;12.078;2023-11-19T08:38:25;8.98;;;6.00;;
26082;SDS011;13848;49.018;12.078;2023-11-19T08:40:51;6.45;;;4.40;;
26082;SDS011;13848;49.018;12.078;2023-11-19T08:43:18;5.80;;;4.35;;
26082;SDS011;13848;49.018;12.078;2023-11-19T08:45:44;5.85;;;4.00;;
26082;SDS011;13848;49.018;12.078;2023-11-19T08:48:10;5.57;;;4.18;;
26082;SDS011;13848;49.018;12.078;2023-11-19T08:50:36;5.97;;;4.40;;
26082;SDS011;13848;49.018;12.078;2023-11-19T08:53:02;6.25;;;4.68;;
26082;SDS011;13848;49.018;12.078;2023-11-19T08:55:28;8.88;;;5.72;;
26082;SDS011;13848;49.018;12.078;2023-11-19T08:57:54;8.70;;;5.43;;
26082;SDS011;13848;49.018;12.078;2023-11-19T09:00:21;20.05;;;9.55;;
26082;SDS011;13848;49.018;12.078;2023-11-19T09:02:47;8.57;;;5.25;;
26082;SDS011;13848;49.018;12.078;2023-11-19T09:05:13;8.48;;;5.53;;
26082;SDS011;13848;49.018;12.078;2023-11-19T09:07:39;6.40;;;4.72;;
26082;SDS011;13848;49.018;12.078;2023-11-19T09:10:05;6.22;;;4.00;;
26082;SDS011;13848;49.018;12.078;2023-11-19T09:12:32;8.32;;;5.43;;
26082;SDS011;13848;49.018;12.078;2023-11-19T09:14:57;7.80;;;4.85;;
26082;SDS011;13848;49.018;12.078;2023-11-19T09:17:25;6.32;;;4.35;;
26082;SDS011;13848;49.018;12.078;2023-11-19T09:19:51;16.88;;;8.73;;
26082;SDS011;13848;49.018;12.078;2023-11-19T09:22:17;12.63;;;7.13;;
26082;SDS011;13848;49.018;12.078;2023-11-19T09:24:42;8.20;;;5.20;;
26082;SDS011;13848;49.018;12.078;2023-11-19T09:27:08;6.75;;;4.65;;
26082;SDS011;13848;49.018;12.078;2023-11-19T09:29:34;5.43;;;4.05;;
26082;SDS011;13848;49.018;12.078;2023-11-19T09:32:00;7.28;;;5.13;;
26082;SDS011;13848;49.018;12.078;2023-11-19T09:34:27;5.70;;;4.40;;
26082;SDS011;13848;49.018;12.078;2023-11-19T09:36:53;8.40;;;5.53;;
26082;SDS011;13848;49.018;12.078;2023-11-19T09:39:19;8.00;;;5.90;;
26082;SDS011;13848;49.018;12.078;2023-11-19T09:41:45;7.20;;;5.00;;
26082;SDS011;13848;49.018;12.078;2023-11-19T09:44:11;6.80;;;4.88;;
26082;SDS011;13848;49.018;12.078;2023-11-19T09:46:37;5.80;;;4.35;;
26082;SDS011;13848;49.018;12.078;2023-11-19T09:49:04;6.25;;;4.40;;
26082;SDS011;13848;49.018;12.078;2023-11-19T09:51:32;6.70;;;4.70;;
26082;SDS011;13848;49.018;12.078;2023-11-19T09:53:58;5.50;;;4.40;;
26082;SDS011;13848;49.018;12.078;2023-11-19T09:56:24;4.63;;;3.90;;
26082;SDS011;13848;49.018;12.078;2023-11-19T09:58:52;6.28;;;4.20;;
26082;SDS011;13848;49.018;12.078;2023-11-19T10:01:18;5.53;;;4.38;;
26082;SDS011;13848;49.018;12.078;2023-11-19T10:03:44;5.35;;;4.07;;
26082;SDS011;13848;49.018;12.078;2023-11-19T10:06:12;6.72;;;4.07;;
26082;SDS011;13848;49.018;12.078;2023-11-19T10:08:42;5.78;;;4.55;;
26082;SDS011;13848;49.018;12.078;2023-11-19T10:11:08;5.85;;;4.53;;
26082;SDS011;13848;49.018;12.078;2023-11-19T10:13:34;5.70;;;4.50;;
26082;SDS011;13848;49.018;12.078;2023-11-19T10:16:03;5.68;;;4.03;;
26082;SDS011;13848;49.018;12.078;2023-11-19T10:18:29;7.55;;;4.45;;
26082;SDS011;13848;49.018;12.078;2023-11-19T10:20:55;8.93;;;5.00;;
26082;SDS011;13848;49.018;12.078;2023-11-19T10:23:21;7.85;;;5.50;;
26082;SDS011;13848;49.018;12.078;2023-11-19T10:25:49;6.05;;;4.47;;
26082;SDS011;13848;49.018;12.078;2023-11-19T10:28:18;7.07;;;4.77;;
26082;SDS011;13848;49.018;12.078;2023-11-19T10:30:44;6.70;;;4.95;;
26082;SDS011;13848;49.018;12.078;2023-11-19T10:33:14;6.43;;;5.03;;
26082;SDS011;13848;49.018;12.078;2023-11-19T10:35:50;6.82;;;5.50;;
26082;SDS011;13848;49.018;12.078;2023-11-19T10:38:16;9.25;;;5.25;;
26082;SDS011;13848;49.018;12.078;2023-11-19T10:40:42;7.68;;;5.38;;
26082;SDS011;13848;49.018;12.078;2023-11-19T10:43:10;7.60;;;5.57;;
26082;SDS011;13848;49.018;12.078;2023-11-19T10:45:36;7.20;;;5.75;;
26082;SDS011;13848;49.018;12.078;2023-11-19T10:48:03;6.85;;;5.20;;
26082;SDS011;13848;49.018;12.078;2023-11-19T10:50:30;7.03;;;5.05;;
26082;SDS011;13848;49.018;12.078;2023-11-19T10:52:56;7.68;;;5.32;;
26082;SDS011;13848;49.018;12.078;2023-11-19T10:55:23;6.55;;;5.18;;
26082;SDS011;13848;49.018;12.078;2023-11-19T10:57:53;8.77;;;5.80;;
26082;SDS011;13848;49.018;12.078;2023-11-19T11:00:26;7.53;;;5.40;;
26082;SDS011;13848;49.018;12.078;2023-11-19T11:02:55;7.88;;;5.53;;
26082;SDS011;13848;49.018;12.078;2023-11-19T11:05:25;7.28;;;5.40;;
26082;SDS011;13848;49.018;12.078;2023-11-19T11:07:51;7.78;;;5.32;;
26082;SDS011;13848;49.018;12.078;2023-11-19T11:10:20;6.95;;;5.40;;
26082;SDS011;13848;49.018;12.078;2023-11-19T11:12:51;8.23;;;6.00;;
26082;SDS011;13848;49.018;12.078;2023-11-19T11:15:18;6.15;;;4.80;;
26082;SDS011;13848;49.018;12.078;2023-11-19T11:17:46;7.28;;;5.75;;
26082;SDS011;13848;49.018;12.078;2023-11-19T11:20:14;8.07;;;5.40;;
26082;SDS011;13848;49.018;12.078;2023-11-19T11:22:42;6.93;;;5.10;;
26082;SDS011;13848;49.018;12.078;2023-11-19T11:25:19;8.32;;;5.50;;
26082;SDS011;13848;49.018;12.078;2023-11-19T11:30:39;7.68;;;4.60;;
26082;SDS011;13848;49.018;12.078;2023-11-19T11:33:20;7.93;;;5.00;;
26082;SDS011;13848;49.018;12.078;2023-11-19T11:35:58;6.72;;;5.03;;
26082;SDS011;13848;49.018;12.078;2023-11-19T11:38:36;6.03;;;5.00;;
26082;SDS011;13848;49.018;12.078;2023-11-19T11:41:15;10.10;;;5.75;;
26082;SDS011;13848;49.018;12.078;2023-11-19T11:43:45;8.77;;;5.90;;
26082;SDS011;13848;49.018;12.078;2023-11-19T11:49:12;5.38;;;4.28;;
26082;SDS011;13848;49.018;12.078;2023-11-19T11:52:00;5.57;;;4.28;;
26082;SDS011;13848;49.018;12.078;2023-11-19T11:54:28;6.43;;;3.75;;
26082;SDS011;13848;49.018;12.078;2023-11-19T11:57:01;4.75;;;3.95;;
26082;SDS011;13848;49.018;12.078;2023-11-19T11:59:31;4.60;;;3.80;;
26082;SDS011;13848;49.018;12.078;2023-11-19T12:02:02;3.92;;;3.53;;
26082;SDS011;13848;49.018;12.078;2023-11-19T12:04:30;4.65;;;3.40;;
26082;SDS011;13848;49.018;12.078;2023-11-19T12:07:05;5.68;;;3.80;;
26082;SDS011;13848;49.018;12.078;2023-11-19T12:09:31;5.70;;;4.50;;
26082;SDS011;13848;49.018;12.078;2023-11-19T12:12:06;28.08;;;15.57;;
26082;SDS011;13848;49.018;12.078;2023-11-19T12:17:38;5.88;;;4.53;;
26082;SDS011;13848;49.018;12.078;2023-11-19T12:20:09;5.57;;;4.00;;
26082;SDS011;13848;49.018;12.078;2023-11-19T12:22:35;3.67;;;2.90;;
26082;SDS011;13848;49.018;12.078;2023-11-19T12:25:03;2.95;;;1.85;;
26082;SDS011;13848;49.018;12.078;2023-11-19T12:27:31;2.13;;;1.45;;
26082;SDS011;13848;49.018;12.078;2023-11-19T12:29:57;1.08;;;0.93;;
26082;SDS011;13848;49.018;12.078;2023-11-19T12:32:23;2.50;;;1.10;;
26082;SDS011;13848;49.018;12.078;2023-11-19T12:34:50;1.27;;;0.98;;
26082;SDS011;13848;49.018;12.078;2023-11-19T12:37:17;1.75;;;1.35;;
26082;SDS011;13848;49.018;12.078;2023-11-19T12:39:43;3.92;;;1.20;;
26082;SDS011;13848;49.018;12.078;2023-11-19T12:42:09;2.10;;;1.10;;
26082;SDS011;13848;49.018;12.078;2023-11-19T12:44:35;2.10;;;1.20;;
26082;SDS011;13848;49.018;12.078;2023-11-19T12:47:02;2.42;;;1.08;;
26082;SDS011;13848;49.018;12.078;2023-11-19T12:49:29;1.30;;;1.00;;
26082;SDS011;13848;49.018;12.078;2023-11-19T12:51:55;5.05;;;1.10;;
26082;SDS011;13848;49.018;12.078;2023-11-19T12:54:32;1.02;;;0.90;;
26082;SDS011;13848;49.018;12.078;2023-11-19T12:57:01;1.17;;;0.80;;
26082;SDS011;13848;49.018;12.078;2023-11-19T12:59:28;1.30;;;1.00;;
26082;SDS011;13848;49.018;12.078;2023-11-19T13:01:54;3.00;;;1.42;;
26082;SDS011;13848;49.018;12.078;2023-11-19T13:04:20;2.92;;;1.17;;
26082;SDS011;13848;49.018;12.078;2023-11-19T13:06:46;1.63;;;1.20;;
26082;SDS011;13848;49.018;12.078;2023-11-19T13:09:21;1.50;;;1.00;;
26082;SDS011;13848;49.018;12.078;2023-11-19T13:11:49;1.88;;;1.10;;
26082;SDS011;13848;49.018;12.078;2023-11-19T13:14:15;1.38;;;0.90;;
26082;SDS011;13848;49.018;12.078;2023-11-19T13:16:40;1.27;;;0.90;;
26082;SDS011;13848;49.018;12.078;2023-11-19T13:19:06;1.30;;;0.85;;
26082;SDS011;13848;49.018;12.078;2023-11-19T13:21:32;2.97;;;0.95;;
26082;SDS011;13848;49.018;12.078;2023-11-19T13:23:58;1.88;;;0.80;;
26082;SDS011;13848;49.018;12.078;2023-11-19T13:26:24;1.38;;;0.80;;
26082;SDS011;13848;49.018;12.078;2023-11-19T13:28:52;1.20;;;0.80;;
26082;SDS011;13848;49.018;12.078;2023-11-19T13:31:18;1.08;;;0.90;;
26082;SDS011;13848;49.018;12.078;2023-11-19T13:33:43;1.92;;;0.90;;
26082;SDS011;13848;49.018;12.078;2023-11-19T13:36:09;1.35;;;0.70;;
26082;SDS011;13848;49.018;12.078;2023-11-19T13:38:35;1.73;;;1.00;;
26082;SDS011;13848;49.018;12.078;2023-11-19T13:41:02;1.40;;;0.80;;
26082;SDS011;13848;49.018;12.078;2023-11-19T13:43:28;3.15;;;0.90;;
26082;SDS011;13848;49.018;12.078;2023-11-19T13:45:55;1.83;;;1.00;;
26082;SDS011;13848;49.018;12.078;2023-11-19T13:48:22;2.53;;;0.90;;
26082;SDS011;13848;49.018;12.078;2023-11-19T13:50:48;2.83;;;1.50;;
26082;SDS011;13848;49.018;12.078;2023-11-19T13:53:14;1.73;;;0.80;;
26082;SDS011;13848;49.018;12.078;2023-11-19T13:55:39;0.85;;;0.60;;
26082;SDS011;13848;49.018;12.078;2023-11-19T13:58:06;1.02;;;0.70;;
26082;SDS011;13848;49.018;12.078;2023-11-19T14:00:32;1.20;;;0.80;;
26082;SDS011;13848;49.018;12.078;2023-11-19T14:03:00;1.10;;;0.70;;
26082;SDS011;13848;49.018;12.078;2023-11-19T14:05:26;1.73;;;0.80;;
26082;SDS011;13848;49.018;12.078;2023-11-19T14:07:51;1.30;;;0.82;;
26082;SDS011;13848;49.018;12.078;2023-11-19T14:10:17;2.05;;;0.80;;
26082;SDS011;13848;49.018;12.078;2023-11-19T14:12:43;2.28;;;0.65;;
26082;SDS011;13848;49.018;12.078;2023-11-19T14:15:09;4.68;;;0.98;;
26082;SDS011;13848;49.018;12.078;2023-11-19T14:17:36;1.25;;;0.75;;
26082;SDS011;13848;49.018;12.078;2023-11-19T14:20:04;2.28;;;0.95;;
26082;SDS011;13848;49.018;12.078;2023-11-19T14:22:31;1.05;;;0.80;;
26082;SDS011;13848;49.018;12.078;2023-11-19T14:24:57;1.25;;;0.80;;
26082;SDS011;13848;49.018;12.078;2023-11-19T14:27:23;0.73;;;0.60;;
26082;SDS011;13848;49.018;12.078;2023-11-19T14:29:49;1.33;;;0.70;;
26082;SDS011;13848;49.018;12.078;2023-11-19T14:32:15;2.28;;;0.80;;
26082;SDS011;13848;49.018;12.078;2023-11-19T14:34:41;2.00;;;0.77;;
26082;SDS011;13848;49.018;12.078;2023-11-19T14:37:08;1.20;;;0.70;;
26082;SDS011;13848;49.018;12.078;2023-11-19T14:39:34;1.63;;;0.98;;